sensor_id;sensor_type;location;lat;lon;timestamp;P1;durP1;ratioP1;P2;durP2;ratioP2
68256;SDS011;55069;51.568;4.656;2024-01-06T00:01:30;15.10;;;6.53;;
68256;SDS011;55069;51.568;4.656;2024-01-06T00:03:55;12.88;;;6.78;;
68256;SDS011;55069;51.568;4.656;2024-01-06T00:06:21;15.33;;;7.17;;
68256;SDS011;55069;51.568;4.656;2024-01-06T00:08:47;17.60;;;7.10;;
68256;SDS011;55069;51.568;4.656;2024-01-06T00:11:19;16.50;;;8.77;;
68256;SDS011;55069;51.568;4.656;2024-01-06T00:13:47;17.83;;;9.07;;
68256;SDS011;55069;51.568;4.656;2024-01-06T00:16:13;23.37;;;9.93;;
68256;SDS011;55069;51.568;4.656;2024-01-06T00:18:42;19.42;;;10.55;;
68256;SDS011;55069;51.568;4.656;2024-01-06T00:21:07;24.20;;;11.23;;
68256;SDS011;55069;51.568;4.656;2024-01-06T00:23:33;18.23;;;10.52;;
68256;SDS011;55069;51.568;4.656;2024-01-06T00:25:58;22.37;;;10.93;;
68256;SDS011;55069;51.568;4.656;2024-01-06T00:28:24;22.60;;;11.00;;
68256;SDS011;55069;51.568;4.656;2024-01-06T00:30:49;18.73;;;10.37;;
68256;SDS011;55069;51.568;4.656;2024-01-06T00:33:15;16.85;;;10.48;;
68256;SDS011;55069;51.568;4.656;2024-01-06T00:35:40;20.17;;;11.00;;
68256;SDS011;55069;51.568;4.656;2024-01-06T00:38:06;19.50;;;10.00;;
68256;SDS011;55069;51.568;4.656;2024-01-06T00:40:31;21.30;;;10.87;;
68256;SDS011;55069;51.568;4.656;2024-01-06T00:42:58;17.27;;;9.77;;
68256;SDS011;55069;51.568;4.656;2024-01-06T00:45:23;17.38;;;9.50;;
68256;SDS011;55069;51.568;4.656;2024-01-06T00:47:49;21.67;;;10.17;;
68256;SDS011;55069;51.568;4.656;2024-01-06T00:50:14;18.10;;;10.50;;
68256;SDS011;55069;51.568;4.656;2024-01-06T00:52:41;19.23;;;9.95;;
68256;SDS011;55069;51.568;4.656;2024-01-06T00:55:06;18.73;;;9.38;;
68256;SDS011;55069;51.568;4.656;2024-01-06T00:57:32;19.80;;;9.63;;
68256;SDS011;55069;51.568;4.656;2024-01-06T00:59:58;18.92;;;9.30;;
68256;SDS011;55069;51.568;4.656;2024-01-06T01:02:23;13.47;;;8.27;;
68256;SDS011;55069;51.568;4.656;2024-01-06T01:04:49;13.00;;;8.33;;
68256;SDS011;55069;51.568;4.656;2024-01-06T01:07:15;13.80;;;8.40;;
68256;SDS011;55069;51.568;4.656;2024-01-06T01:09:41;16.55;;;8.02;;
68256;SDS011;55069;51.568;4.656;2024-01-06T01:12:06;16.87;;;8.47;;
68256;SDS011;55069;51.568;4.656;2024-01-06T01:14:31;13.75;;;7.93;;
68256;SDS011;55069;51.568;4.656;2024-01-06T01:16:57;14.97;;;8.13;;
68256;SDS011;55069;51.568;4.656;2024-01-06T01:19:22;16.87;;;8.13;;
68256;SDS011;55069;51.568;4.656;2024-01-06T01:21:48;12.53;;;7.47;;
68256;SDS011;55069;51.568;4.656;2024-01-06T01:24:13;13.82;;;7.45;;
68256;SDS011;55069;51.568;4.656;2024-01-06T01:26:39;15.50;;;6.97;;
68256;SDS011;55069;51.568;4.656;2024-01-06T01:29:04;11.83;;;6.10;;
68256;SDS011;55069;51.568;4.656;2024-01-06T01:31:30;12.73;;;6.70;;
68256;SDS011;55069;51.568;4.656;2024-01-06T01:33:55;12.97;;;6.57;;
68256;SDS011;55069;51.568;4.656;2024-01-06T01:36:21;14.80;;;6.50;;
68256;SDS011;55069;51.568;4.656;2024-01-06T01:38:46;14.63;;;6.90;;
68256;SDS011;55069;51.568;4.656;2024-01-06T01:41:12;12.30;;;6.87;;
68256;SDS011;55069;51.568;4.656;2024-01-06T01:43:37;10.85;;;6.70;;
68256;SDS011;55069;51.568;4.656;2024-01-06T01:46:03;13.90;;;7.10;;
68256;SDS011;55069;51.568;4.656;2024-01-06T01:48:29;12.67;;;6.97;;
68256;SDS011;55069;51.568;4.656;2024-01-06T01:50:56;12.77;;;6.47;;
68256;SDS011;55069;51.568;4.656;2024-01-06T01:53:22;13.85;;;7.88;;
68256;SDS011;55069;51.568;4.656;2024-01-06T01:55:49;17.07;;;8.23;;
68256;SDS011;55069;51.568;4.656;2024-01-06T01:58:15;12.77;;;7.20;;
68256;SDS011;55069;51.568;4.656;2024-01-06T02:00:41;10.15;;;6.65;;
68256;SDS011;55069;51.568;4.656;2024-01-06T02:03:06;9.23;;;6.50;;
68256;SDS011;55069;51.568;4.656;2024-01-06T02:05:34;13.20;;;6.70;;
68256;SDS011;55069;51.568;4.656;2024-01-06T02:07:59;9.87;;;5.43;;
68256;SDS011;55069;51.568;4.656;2024-01-06T02:10:25;11.18;;;6.03;;
68256;SDS011;55069;51.568;4.656;2024-01-06T02:12:51;10.07;;;5.87;;
68256;SDS011;55069;51.568;4.656;2024-01-06T02:15:17;10.20;;;5.78;;
68256;SDS011;55069;51.568;4.656;2024-01-06T02:17:43;8.30;;;5.60;;
68256;SDS011;55069;51.568;4.656;2024-01-06T02:20:09;12.20;;;5.70;;
68256;SDS011;55069;51.568;4.656;2024-01-06T02:22:36;10.07;;;4.95;;
68256;SDS011;55069;51.568;4.656;2024-01-06T02:25:02;9.05;;;5.25;;
68256;SDS011;55069;51.568;4.656;2024-01-06T02:27:37;8.27;;;4.97;;
68256;SDS011;55069;51.568;4.656;2024-01-06T02:30:03;6.88;;;4.18;;
68256;SDS011;55069;51.568;4.656;2024-01-06T02:32:29;8.60;;;4.53;;
68256;SDS011;55069;51.568;4.656;2024-01-06T02:34:55;8.47;;;4.60;;
68256;SDS011;55069;51.568;4.656;2024-01-06T02:37:20;6.60;;;4.50;;
68256;SDS011;55069;51.568;4.656;2024-01-06T02:39:46;7.55;;;4.07;;
68256;SDS011;55069;51.568;4.656;2024-01-06T02:42:11;8.13;;;4.33;;
68256;SDS011;55069;51.568;4.656;2024-01-06T02:44:37;7.07;;;4.47;;
68256;SDS011;55069;51.568;4.656;2024-01-06T02:47:02;7.72;;;3.92;;
68256;SDS011;55069;51.568;4.656;2024-01-06T02:49:28;7.68;;;4.32;;
68256;SDS011;55069;51.568;4.656;2024-01-06T02:51:53;7.27;;;5.00;;
68256;SDS011;55069;51.568;4.656;2024-01-06T02:54:19;7.77;;;4.80;;
68256;SDS011;55069;51.568;4.656;2024-01-06T02:56:44;8.90;;;4.72;;
68256;SDS011;55069;51.568;4.656;2024-01-06T02:59:10;6.83;;;4.57;;
68256;SDS011;55069;51.568;4.656;2024-01-06T03:01:35;9.07;;;4.70;;
68256;SDS011;55069;51.568;4.656;2024-01-06T03:04:01;7.55;;;4.93;;
68256;SDS011;55069;51.568;4.656;2024-01-06T03:06:27;9.33;;;4.23;;
68256;SDS011;55069;51.568;4.656;2024-01-06T03:08:53;8.80;;;4.38;;
68256;SDS011;55069;51.568;4.656;2024-01-06T03:11:18;8.23;;;4.47;;
68256;SDS011;55069;51.568;4.656;2024-01-06T03:13:44;8.13;;;3.33;;
68256;SDS011;55069;51.568;4.656;2024-01-06T03:16:11;8.47;;;3.83;;
68256;SDS011;55069;51.568;4.656;2024-01-06T03:18:36;4.85;;;3.83;;
68256;SDS011;55069;51.568;4.656;2024-01-06T03:21:02;6.87;;;4.20;;
68256;SDS011;55069;51.568;4.656;2024-01-06T03:23:28;8.02;;;3.60;;
68256;SDS011;55069;51.568;4.656;2024-01-06T03:25:53;5.83;;;3.93;;
68256;SDS011;55069;51.568;4.656;2024-01-06T03:28:18;8.13;;;3.77;;
68256;SDS011;55069;51.568;4.656;2024-01-06T03:30:44;6.53;;;4.00;;
68256;SDS011;55069;51.568;4.656;2024-01-06T03:33:09;8.02;;;4.10;;
68256;SDS011;55069;51.568;4.656;2024-01-06T03:35:35;8.37;;;3.70;;
68256;SDS011;55069;51.568;4.656;2024-01-06T03:38:00;6.90;;;4.23;;
68256;SDS011;55069;51.568;4.656;2024-01-06T03:40:26;11.25;;;4.40;;
68256;SDS011;55069;51.568;4.656;2024-01-06T03:42:51;6.65;;;3.75;;
68256;SDS011;55069;51.568;4.656;2024-01-06T03:45:19;6.70;;;4.43;;
68256;SDS011;55069;51.568;4.656;2024-01-06T03:47:44;7.68;;;4.63;;
68256;SDS011;55069;51.568;4.656;2024-01-06T03:50:10;6.17;;;3.67;;
68256;SDS011;55069;51.568;4.656;2024-01-06T03:52:35;5.70;;;3.50;;
68256;SDS011;55069;51.568;4.656;2024-01-06T03:55:01;6.47;;;3.92;;
68256;SDS011;55069;51.568;4.656;2024-01-06T03:57:26;5.20;;;2.90;;
68256;SDS011;55069;51.568;4.656;2024-01-06T03:59:51;4.57;;;3.00;;
68256;SDS011;55069;51.568;4.656;2024-01-06T04:02:17;6.07;;;2.80;;
68256;SDS011;55069;51.568;4.656;2024-01-06T04:04:42;3.33;;;2.60;;
68256;SDS011;55069;51.568;4.656;2024-01-06T04:07:08;6.60;;;2.25;;
68256;SDS011;55069;51.568;4.656;2024-01-06T04:09:33;7.27;;;2.30;;
68256;SDS011;55069;51.568;4.656;2024-01-06T04:11:59;8.03;;;2.30;;
68256;SDS011;55069;51.568;4.656;2024-01-06T04:14:26;4.47;;;2.30;;
68256;SDS011;55069;51.568;4.656;2024-01-06T04:16:51;4.47;;;2.70;;
68256;SDS011;55069;51.568;4.656;2024-01-06T04:19:18;5.63;;;2.80;;
68256;SDS011;55069;51.568;4.656;2024-01-06T04:21:45;7.13;;;3.45;;
68256;SDS011;55069;51.568;4.656;2024-01-06T04:24:11;5.37;;;3.60;;
68256;SDS011;55069;51.568;4.656;2024-01-06T04:26:36;8.83;;;4.50;;
68256;SDS011;55069;51.568;4.656;2024-01-06T04:29:02;8.70;;;4.70;;
68256;SDS011;55069;51.568;4.656;2024-01-06T04:31:27;8.73;;;5.13;;
68256;SDS011;55069;51.568;4.656;2024-01-06T04:33:52;8.03;;;4.40;;
68256;SDS011;55069;51.568;4.656;2024-01-06T04:36:18;6.73;;;5.00;;
68256;SDS011;55069;51.568;4.656;2024-01-06T04:38:43;11.17;;;5.47;;
68256;SDS011;55069;51.568;4.656;2024-01-06T04:41:09;10.65;;;5.68;;
68256;SDS011;55069;51.568;4.656;2024-01-06T04:43:34;10.13;;;5.78;;
68256;SDS011;55069;51.568;4.656;2024-01-06T04:46:00;9.07;;;5.53;;
68256;SDS011;55069;51.568;4.656;2024-01-06T04:48:25;9.10;;;5.90;;
68256;SDS011;55069;51.568;4.656;2024-01-06T04:50:51;9.63;;;5.90;;
68256;SDS011;55069;51.568;4.656;2024-01-06T04:53:16;11.23;;;6.30;;
68256;SDS011;55069;51.568;4.656;2024-01-06T04:55:42;12.70;;;6.67;;
68256;SDS011;55069;51.568;4.656;2024-01-06T04:58:08;11.43;;;6.33;;
68256;SDS011;55069;51.568;4.656;2024-01-06T05:00:33;9.95;;;5.88;;
68256;SDS011;55069;51.568;4.656;2024-01-06T05:03:01;12.17;;;6.07;;
68256;SDS011;55069;51.568;4.656;2024-01-06T05:05:26;10.30;;;6.03;;
68256;SDS011;55069;51.568;4.656;2024-01-06T05:07:52;14.10;;;6.57;;
68256;SDS011;55069;51.568;4.656;2024-01-06T05:10:17;12.83;;;6.37;;
68256;SDS011;55069;51.568;4.656;2024-01-06T05:12:43;16.25;;;6.03;;
68256;SDS011;55069;51.568;4.656;2024-01-06T05:15:09;14.27;;;7.17;;
68256;SDS011;55069;51.568;4.656;2024-01-06T05:17:34;10.20;;;5.87;;
68256;SDS011;55069;51.568;4.656;2024-01-06T05:20:00;14.05;;;6.50;;
68256;SDS011;55069;51.568;4.656;2024-01-06T05:22:25;12.30;;;6.87;;
68256;SDS011;55069;51.568;4.656;2024-01-06T05:24:51;12.77;;;6.43;;
68256;SDS011;55069;51.568;4.656;2024-01-06T05:27:18;11.75;;;7.20;;
68256;SDS011;55069;51.568;4.656;2024-01-06T05:29:44;12.07;;;6.28;;
68256;SDS011;55069;51.568;4.656;2024-01-06T05:32:10;10.27;;;6.37;;
68256;SDS011;55069;51.568;4.656;2024-01-06T05:34:35;15.07;;;7.50;;
68256;SDS011;55069;51.568;4.656;2024-01-06T05:37:01;11.73;;;7.23;;
68256;SDS011;55069;51.568;4.656;2024-01-06T05:39:26;10.98;;;6.43;;
68256;SDS011;55069;51.568;4.656;2024-01-06T05:41:52;16.97;;;6.87;;
68256;SDS011;55069;51.568;4.656;2024-01-06T05:44:17;13.40;;;7.30;;
68256;SDS011;55069;51.568;4.656;2024-01-06T05:46:43;15.93;;;8.03;;
68256;SDS011;55069;51.568;4.656;2024-01-06T05:49:08;16.13;;;7.40;;
68256;SDS011;55069;51.568;4.656;2024-01-06T05:51:35;11.13;;;6.67;;
68256;SDS011;55069;51.568;4.656;2024-01-06T05:54:01;10.45;;;6.28;;
68256;SDS011;55069;51.568;4.656;2024-01-06T05:56:27;8.57;;;5.57;;
68256;SDS011;55069;51.568;4.656;2024-01-06T05:58:53;7.28;;;4.70;;
68256;SDS011;55069;51.568;4.656;2024-01-06T06:01:19;7.30;;;4.07;;
68256;SDS011;55069;51.568;4.656;2024-01-06T06:03:46;6.15;;;3.75;;
68256;SDS011;55069;51.568;4.656;2024-01-06T06:06:12;5.65;;;3.80;;
68256;SDS011;55069;51.568;4.656;2024-01-06T06:08:37;8.87;;;3.87;;
68256;SDS011;55069;51.568;4.656;2024-01-06T06:11:03;5.73;;;3.50;;
68256;SDS011;55069;51.568;4.656;2024-01-06T06:13:36;7.15;;;3.17;;
68256;SDS011;55069;51.568;4.656;2024-01-06T06:16:03;6.45;;;3.17;;
68256;SDS011;55069;51.568;4.656;2024-01-06T06:18:29;7.28;;;3.83;;
68256;SDS011;55069;51.568;4.656;2024-01-06T06:20:55;6.13;;;3.63;;
68256;SDS011;55069;51.568;4.656;2024-01-06T06:23:20;5.23;;;3.17;;
68256;SDS011;55069;51.568;4.656;2024-01-06T06:25:46;5.73;;;3.37;;
68256;SDS011;55069;51.568;4.656;2024-01-06T06:28:11;7.63;;;3.78;;
68256;SDS011;55069;51.568;4.656;2024-01-06T06:30:37;8.82;;;4.32;;
68256;SDS011;55069;51.568;4.656;2024-01-06T06:33:03;7.50;;;3.90;;
68256;SDS011;55069;51.568;4.656;2024-01-06T06:35:28;7.35;;;3.72;;
68256;SDS011;55069;51.568;4.656;2024-01-06T06:37:54;9.20;;;4.30;;
68256;SDS011;55069;51.568;4.656;2024-01-06T06:40:19;6.63;;;3.50;;
68256;SDS011;55069;51.568;4.656;2024-01-06T06:42:45;6.93;;;3.77;;
68256;SDS011;55069;51.568;4.656;2024-01-06T06:45:10;11.27;;;3.90;;
68256;SDS011;55069;51.568;4.656;2024-01-06T06:47:38;8.02;;;3.53;;
68256;SDS011;55069;51.568;4.656;2024-01-06T06:50:04;8.07;;;4.05;;
68256;SDS011;55069;51.568;4.656;2024-01-06T06:52:30;10.27;;;3.90;;
68256;SDS011;55069;51.568;4.656;2024-01-06T06:54:56;5.85;;;3.50;;
68256;SDS011;55069;51.568;4.656;2024-01-06T06:57:21;5.93;;;3.50;;
68256;SDS011;55069;51.568;4.656;2024-01-06T06:59:47;6.87;;;3.47;;
68256;SDS011;55069;51.568;4.656;2024-01-06T07:02:12;7.63;;;3.95;;
68256;SDS011;55069;51.568;4.656;2024-01-06T07:04:38;8.23;;;3.78;;
68256;SDS011;55069;51.568;4.656;2024-01-06T07:07:03;6.67;;;3.70;;
68256;SDS011;55069;51.568;4.656;2024-01-06T07:09:29;7.97;;;3.27;;
68256;SDS011;55069;51.568;4.656;2024-01-06T07:11:54;10.37;;;4.53;;
68256;SDS011;55069;51.568;4.656;2024-01-06T07:14:20;7.13;;;3.58;;
68256;SDS011;55069;51.568;4.656;2024-01-06T07:16:45;9.97;;;3.67;;
68256;SDS011;55069;51.568;4.656;2024-01-06T07:19:11;7.67;;;3.60;;
68256;SDS011;55069;51.568;4.656;2024-01-06T07:21:36;6.30;;;3.43;;
68256;SDS011;55069;51.568;4.656;2024-01-06T07:24:02;8.55;;;3.65;;
68256;SDS011;55069;51.568;4.656;2024-01-06T07:26:28;7.90;;;3.30;;
68256;SDS011;55069;51.568;4.656;2024-01-06T07:28:53;5.80;;;3.63;;
68256;SDS011;55069;51.568;4.656;2024-01-06T07:31:19;5.87;;;3.00;;
68256;SDS011;55069;51.568;4.656;2024-01-06T07:33:44;8.90;;;4.07;;
68256;SDS011;55069;51.568;4.656;2024-01-06T07:36:10;6.57;;;3.80;;
68256;SDS011;55069;51.568;4.656;2024-01-06T07:38:35;8.25;;;4.43;;
68256;SDS011;55069;51.568;4.656;2024-01-06T07:41:01;6.88;;;3.35;;
68256;SDS011;55069;51.568;4.656;2024-01-06T07:43:27;6.23;;;4.23;;
68256;SDS011;55069;51.568;4.656;2024-01-06T07:45:53;10.20;;;4.27;;
68256;SDS011;55069;51.568;4.656;2024-01-06T07:48:18;7.65;;;4.03;;
68256;SDS011;55069;51.568;4.656;2024-01-06T07:50:44;8.67;;;4.73;;
68256;SDS011;55069;51.568;4.656;2024-01-06T07:53:10;4.95;;;3.53;;
68256;SDS011;55069;51.568;4.656;2024-01-06T07:55:36;7.37;;;4.07;;
68256;SDS011;55069;51.568;4.656;2024-01-06T07:58:01;6.87;;;3.57;;
68256;SDS011;55069;51.568;4.656;2024-01-06T08:00:27;8.13;;;3.72;;
68256;SDS011;55069;51.568;4.656;2024-01-06T08:02:52;6.60;;;4.10;;
68256;SDS011;55069;51.568;4.656;2024-01-06T08:05:18;7.30;;;4.10;;
68256;SDS011;55069;51.568;4.656;2024-01-06T08:07:43;5.23;;;3.97;;
68256;SDS011;55069;51.568;4.656;2024-01-06T08:10:09;5.97;;;4.50;;
68256;SDS011;55069;51.568;4.656;2024-01-06T08:12:34;6.40;;;4.27;;
68256;SDS011;55069;51.568;4.656;2024-01-06T08:15:00;7.63;;;3.90;;
68256;SDS011;55069;51.568;4.656;2024-01-06T08:17:25;10.60;;;4.37;;
68256;SDS011;55069;51.568;4.656;2024-01-06T08:19:51;7.72;;;4.47;;
68256;SDS011;55069;51.568;4.656;2024-01-06T08:22:16;12.23;;;5.37;;
68256;SDS011;55069;51.568;4.656;2024-01-06T08:24:42;11.50;;;4.47;;
68256;SDS011;55069;51.568;4.656;2024-01-06T08:27:07;9.93;;;5.47;;
68256;SDS011;55069;51.568;4.656;2024-01-06T08:29:33;9.57;;;5.30;;
68256;SDS011;55069;51.568;4.656;2024-01-06T08:31:59;12.23;;;5.40;;
68256;SDS011;55069;51.568;4.656;2024-01-06T08:34:25;10.25;;;6.03;;
68256;SDS011;55069;51.568;4.656;2024-01-06T08:36:50;11.90;;;6.10;;
68256;SDS011;55069;51.568;4.656;2024-01-06T08:39:16;11.43;;;6.37;;
68256;SDS011;55069;51.568;4.656;2024-01-06T08:41:42;13.27;;;6.53;;
68256;SDS011;55069;51.568;4.656;2024-01-06T08:44:07;13.17;;;6.63;;
68256;SDS011;55069;51.568;4.656;2024-01-06T08:46:33;10.70;;;6.60;;
68256;SDS011;55069;51.568;4.656;2024-01-06T08:48:58;10.85;;;6.30;;
68256;SDS011;55069;51.568;4.656;2024-01-06T08:51:25;12.00;;;7.03;;
68256;SDS011;55069;51.568;4.656;2024-01-06T08:53:51;11.07;;;6.03;;
68256;SDS011;55069;51.568;4.656;2024-01-06T08:56:17;13.00;;;6.40;;
68256;SDS011;55069;51.568;4.656;2024-01-06T08:58:43;13.02;;;7.10;;
68256;SDS011;55069;51.568;4.656;2024-01-06T09:01:08;11.53;;;6.30;;
68256;SDS011;55069;51.568;4.656;2024-01-06T09:03:34;9.73;;;6.30;;
68256;SDS011;55069;51.568;4.656;2024-01-06T09:06:00;11.00;;;6.47;;
68256;SDS011;55069;51.568;4.656;2024-01-06T09:08:25;9.93;;;5.68;;
68256;SDS011;55069;51.568;4.656;2024-01-06T09:10:51;14.13;;;5.38;;
68256;SDS011;55069;51.568;4.656;2024-01-06T09:13:19;7.97;;;4.30;;
68256;SDS011;55069;51.568;4.656;2024-01-06T09:15:47;8.60;;;4.82;;
68256;SDS011;55069;51.568;4.656;2024-01-06T09:18:12;6.95;;;5.20;;
68256;SDS011;55069;51.568;4.656;2024-01-06T09:20:38;6.72;;;4.13;;
68256;SDS011;55069;51.568;4.656;2024-01-06T09:23:03;9.97;;;4.30;;
68256;SDS011;55069;51.568;4.656;2024-01-06T09:25:29;7.75;;;4.50;;
68256;SDS011;55069;51.568;4.656;2024-01-06T09:27:55;8.77;;;4.67;;
68256;SDS011;55069;51.568;4.656;2024-01-06T09:30:20;6.37;;;3.37;;
68256;SDS011;55069;51.568;4.656;2024-01-06T09:32:46;5.27;;;3.07;;
68256;SDS011;55069;51.568;4.656;2024-01-06T09:35:11;6.75;;;3.35;;
68256;SDS011;55069;51.568;4.656;2024-01-06T09:37:39;6.33;;;3.90;;
68256;SDS011;55069;51.568;4.656;2024-01-06T09:40:06;5.40;;;3.85;;
68256;SDS011;55069;51.568;4.656;2024-01-06T09:42:36;6.13;;;3.63;;
68256;SDS011;55069;51.568;4.656;2024-01-06T09:45:02;7.53;;;4.57;;
68256;SDS011;55069;51.568;4.656;2024-01-06T09:47:28;9.75;;;4.47;;
68256;SDS011;55069;51.568;4.656;2024-01-06T09:50:00;9.85;;;4.40;;
68256;SDS011;55069;51.568;4.656;2024-01-06T09:52:28;7.03;;;3.78;;
68256;SDS011;55069;51.568;4.656;2024-01-06T09:54:57;9.23;;;3.83;;
68256;SDS011;55069;51.568;4.656;2024-01-06T09:57:25;7.78;;;4.10;;
68256;SDS011;55069;51.568;4.656;2024-01-06T09:59:51;7.10;;;4.18;;
68256;SDS011;55069;51.568;4.656;2024-01-06T10:02:17;6.28;;;3.60;;
68256;SDS011;55069;51.568;4.656;2024-01-06T10:04:45;11.00;;;4.17;;
68256;SDS011;55069;51.568;4.656;2024-01-06T10:07:11;6.45;;;3.60;;
68256;SDS011;55069;51.568;4.656;2024-01-06T10:09:39;5.45;;;3.70;;
68256;SDS011;55069;51.568;4.656;2024-01-06T10:12:06;7.23;;;3.83;;
68256;SDS011;55069;51.568;4.656;2024-01-06T10:14:32;6.03;;;3.55;;
68256;SDS011;55069;51.568;4.656;2024-01-06T10:16:58;5.82;;;3.25;;
68256;SDS011;55069;51.568;4.656;2024-01-06T10:19:23;9.10;;;3.90;;
68256;SDS011;55069;51.568;4.656;2024-01-06T10:21:49;7.23;;;3.87;;
68256;SDS011;55069;51.568;4.656;2024-01-06T10:24:17;5.65;;;3.60;;
68256;SDS011;55069;51.568;4.656;2024-01-06T10:26:46;7.70;;;3.53;;
68256;SDS011;55069;51.568;4.656;2024-01-06T10:29:12;5.22;;;3.83;;
68256;SDS011;55069;51.568;4.656;2024-01-06T10:31:38;4.20;;;2.53;;
68256;SDS011;55069;51.568;4.656;2024-01-06T10:34:05;6.97;;;2.90;;
68256;SDS011;55069;51.568;4.656;2024-01-06T10:36:31;7.18;;;3.08;;
68256;SDS011;55069;51.568;4.656;2024-01-06T10:38:57;6.00;;;3.00;;
68256;SDS011;55069;51.568;4.656;2024-01-06T10:41:22;6.82;;;2.88;;
68256;SDS011;55069;51.568;4.656;2024-01-06T10:43:49;6.57;;;3.00;;
68256;SDS011;55069;51.568;4.656;2024-01-06T10:46:16;6.03;;;2.55;;
68256;SDS011;55069;51.568;4.656;2024-01-06T10:48:44;4.43;;;2.80;;
68256;SDS011;55069;51.568;4.656;2024-01-06T10:51:13;4.65;;;2.55;;
68256;SDS011;55069;51.568;4.656;2024-01-06T10:53:40;7.10;;;3.40;;
68256;SDS011;55069;51.568;4.656;2024-01-06T10:56:07;4.60;;;2.78;;
68256;SDS011;55069;51.568;4.656;2024-01-06T10:58:33;5.88;;;3.72;;
68256;SDS011;55069;51.568;4.656;2024-01-06T11:01:07;7.75;;;3.00;;
68256;SDS011;55069;51.568;4.656;2024-01-06T11:03:33;6.90;;;2.80;;
68256;SDS011;55069;51.568;4.656;2024-01-06T11:06:07;8.82;;;3.83;;
68256;SDS011;55069;51.568;4.656;2024-01-06T11:08:36;6.97;;;3.50;;
68256;SDS011;55069;51.568;4.656;2024-01-06T11:11:15;5.20;;;3.67;;
68256;SDS011;55069;51.568;4.656;2024-01-06T11:13:42;6.33;;;3.17;;
68256;SDS011;55069;51.568;4.656;2024-01-06T11:16:10;5.53;;;3.30;;
68256;SDS011;55069;51.568;4.656;2024-01-06T11:18:39;7.07;;;3.40;;
68256;SDS011;55069;51.568;4.656;2024-01-06T11:23:43;6.63;;;3.17;;
68256;SDS011;55069;51.568;4.656;2024-01-06T11:26:08;4.10;;;2.80;;
68256;SDS011;55069;51.568;4.656;2024-01-06T11:28:44;2.65;;;1.83;;
68256;SDS011;55069;51.568;4.656;2024-01-06T11:31:11;5.95;;;1.58;;
68256;SDS011;55069;51.568;4.656;2024-01-06T11:33:45;3.38;;;2.03;;
68256;SDS011;55069;51.568;4.656;2024-01-06T11:36:14;4.07;;;1.90;;
68256;SDS011;55069;51.568;4.656;2024-01-06T11:38:40;3.92;;;1.92;;
68256;SDS011;55069;51.568;4.656;2024-01-06T11:41:10;4.20;;;2.10;;
68256;SDS011;55069;51.568;4.656;2024-01-06T11:43:37;4.32;;;1.85;;
68256;SDS011;55069;51.568;4.656;2024-01-06T11:46:07;4.73;;;2.40;;
68256;SDS011;55069;51.568;4.656;2024-01-06T11:48:34;4.22;;;2.50;;
68256;SDS011;55069;51.568;4.656;2024-01-06T11:50:59;3.58;;;2.20;;
68256;SDS011;55069;51.568;4.656;2024-01-06T11:53:29;4.78;;;2.40;;
68256;SDS011;55069;51.568;4.656;2024-01-06T11:55:55;6.97;;;2.40;;
68256;SDS011;55069;51.568;4.656;2024-01-06T11:58:20;4.00;;;2.50;;
68256;SDS011;55069;51.568;4.656;2024-01-06T12:00:54;4.73;;;2.27;;
68256;SDS011;55069;51.568;4.656;2024-01-06T12:03:21;4.53;;;2.75;;
68256;SDS011;55069;51.568;4.656;2024-01-06T12:05:58;5.07;;;2.97;;
68256;SDS011;55069;51.568;4.656;2024-01-06T12:08:25;4.03;;;2.53;;
68256;SDS011;55069;51.568;4.656;2024-01-06T12:10:51;6.47;;;3.60;;
68256;SDS011;55069;51.568;4.656;2024-01-06T12:13:26;5.23;;;3.33;;
68256;SDS011;55069;51.568;4.656;2024-01-06T12:15:52;6.90;;;3.50;;
68256;SDS011;55069;51.568;4.656;2024-01-06T12:18:17;7.37;;;3.90;;
68256;SDS011;55069;51.568;4.656;2024-01-06T12:20:43;7.50;;;3.23;;
68256;SDS011;55069;51.568;4.656;2024-01-06T12:23:10;8.02;;;3.80;;
68256;SDS011;55069;51.568;4.656;2024-01-06T12:25:35;7.43;;;3.23;;
68256;SDS011;55069;51.568;4.656;2024-01-06T12:28:01;6.00;;;3.13;;
68256;SDS011;55069;51.568;4.656;2024-01-06T12:30:27;5.90;;;3.60;;
68256;SDS011;55069;51.568;4.656;2024-01-06T12:32:53;7.83;;;3.63;;
68256;SDS011;55069;51.568;4.656;2024-01-06T12:35:19;7.38;;;3.58;;
68256;SDS011;55069;51.568;4.656;2024-01-06T12:37:45;7.75;;;4.18;;
68256;SDS011;55069;51.568;4.656;2024-01-06T12:40:11;5.47;;;3.70;;
68256;SDS011;55069;51.568;4.656;2024-01-06T12:42:38;6.60;;;3.95;;
68256;SDS011;55069;51.568;4.656;2024-01-06T12:45:04;6.83;;;3.43;;
68256;SDS011;55069;51.568;4.656;2024-01-06T12:47:31;7.05;;;3.22;;
68256;SDS011;55069;51.568;4.656;2024-01-06T12:49:57;9.37;;;4.30;;
68256;SDS011;55069;51.568;4.656;2024-01-06T12:52:23;5.43;;;3.28;;
68256;SDS011;55069;51.568;4.656;2024-01-06T12:54:49;5.40;;;3.07;;
68256;SDS011;55069;51.568;4.656;2024-01-06T12:57:14;7.75;;;3.60;;
68256;SDS011;55069;51.568;4.656;2024-01-06T12:59:41;5.83;;;3.23;;
68256;SDS011;55069;51.568;4.656;2024-01-06T13:02:06;4.43;;;2.35;;
68256;SDS011;55069;51.568;4.656;2024-01-06T13:04:32;8.47;;;2.77;;
68256;SDS011;55069;51.568;4.656;2024-01-06T13:06:57;5.37;;;2.73;;
68256;SDS011;55069;51.568;4.656;2024-01-06T13:09:23;4.95;;;2.90;;
68256;SDS011;55069;51.568;4.656;2024-01-06T13:11:49;5.70;;;2.77;;
68256;SDS011;55069;51.568;4.656;2024-01-06T13:14:16;4.65;;;2.90;;
68256;SDS011;55069;51.568;4.656;2024-01-06T13:16:43;4.75;;;2.70;;
68256;SDS011;55069;51.568;4.656;2024-01-06T13:19:08;4.00;;;2.80;;
68256;SDS011;55069;51.568;4.656;2024-01-06T13:21:34;6.13;;;3.40;;
68256;SDS011;55069;51.568;4.656;2024-01-06T13:24:01;6.63;;;2.60;;
68256;SDS011;55069;51.568;4.656;2024-01-06T13:26:30;5.35;;;3.00;;
68256;SDS011;55069;51.568;4.656;2024-01-06T13:28:56;7.40;;;3.00;;
68256;SDS011;55069;51.568;4.656;2024-01-06T13:31:21;4.27;;;2.80;;
68256;SDS011;55069;51.568;4.656;2024-01-06T13:33:47;5.27;;;2.80;;
68256;SDS011;55069;51.568;4.656;2024-01-06T13:36:12;4.27;;;2.37;;
68256;SDS011;55069;51.568;4.656;2024-01-06T13:38:38;8.68;;;2.53;;
68256;SDS011;55069;51.568;4.656;2024-01-06T13:41:04;6.20;;;3.27;;
68256;SDS011;55069;51.568;4.656;2024-01-06T13:43:30;7.93;;;3.58;;
68256;SDS011;55069;51.568;4.656;2024-01-06T13:45:57;6.88;;;3.10;;
68256;SDS011;55069;51.568;4.656;2024-01-06T13:48:22;8.10;;;3.60;;
68256;SDS011;55069;51.568;4.656;2024-01-06T13:50:48;8.40;;;3.73;;
68256;SDS011;55069;51.568;4.656;2024-01-06T13:53:14;6.45;;;3.85;;
68256;SDS011;55069;51.568;4.656;2024-01-06T13:55:40;6.53;;;4.20;;
68256;SDS011;55069;51.568;4.656;2024-01-06T13:58:05;5.60;;;3.83;;
68256;SDS011;55069;51.568;4.656;2024-01-06T14:00:34;8.77;;;3.78;;
68256;SDS011;55069;51.568;4.656;2024-01-06T14:03:00;9.40;;;4.27;;
68256;SDS011;55069;51.568;4.656;2024-01-06T14:05:26;6.72;;;4.03;;
68256;SDS011;55069;51.568;4.656;2024-01-06T14:07:52;7.25;;;4.07;;
68256;SDS011;55069;51.568;4.656;2024-01-06T14:10:17;4.03;;;2.92;;
68256;SDS011;55069;51.568;4.656;2024-01-06T14:12:43;5.40;;;3.28;;
68256;SDS011;55069;51.568;4.656;2024-01-06T14:15:09;5.55;;;3.65;;
68256;SDS011;55069;51.568;4.656;2024-01-06T14:17:35;5.57;;;3.23;;
68256;SDS011;55069;51.568;4.656;2024-01-06T14:20:01;5.60;;;3.03;;
68256;SDS011;55069;51.568;4.656;2024-01-06T14:22:27;6.45;;;3.30;;
68256;SDS011;55069;51.568;4.656;2024-01-06T14:24:52;5.33;;;3.03;;
68256;SDS011;55069;51.568;4.656;2024-01-06T14:27:18;5.30;;;3.27;;
68256;SDS011;55069;51.568;4.656;2024-01-06T14:29:43;9.88;;;4.43;;
68256;SDS011;55069;51.568;4.656;2024-01-06T14:32:09;9.40;;;4.50;;
68256;SDS011;55069;51.568;4.656;2024-01-06T14:34:34;9.67;;;4.03;;
68256;SDS011;55069;51.568;4.656;2024-01-06T14:37:00;6.23;;;4.00;;
68256;SDS011;55069;51.568;4.656;2024-01-06T14:39:25;6.40;;;3.83;;